Aviation Digital Data Service (ADDS)

Output produced by METARs form (0633 UTC 21 January 2019)
found at http://www.aviationweather.gov/metar/data/
 
Forecast for: ZSSS (SHANGHAI/HONGQIA, CN)
Text: TAF ZSSS 210308Z 2106/2206 28004MPS 5000 BR NSC TX10/2106Z TN01/2121Z
Forecast period: 0600 UTC 21 January 2019 to 0600 UTC 22 January 2019
Forecast type: FROM: standard forecast or significant change
Winds: from the W (280 degrees) at 9 MPH (8 knots; 4.1 m/s)
Visibility: 3 miles (5 km)
Ceiling: unknown
Clouds: missing
Weather: BR  (mist)